sensor_id;sensor_type;location;lat;lon;timestamp;P1;durP1;ratioP1;P2;durP2;ratioP2
54883;SDS011;40776;52.880;6.016;2022-10-13T00:01:13;27.17;;;14.00;;
54883;SDS011;40776;52.880;6.016;2022-10-13T00:03:40;31.33;;;14.25;;
54883;SDS011;40776;52.880;6.016;2022-10-13T00:06:07;29.15;;;14.73;;
54883;SDS011;40776;52.880;6.016;2022-10-13T00:08:34;28.77;;;14.77;;
54883;SDS011;40776;52.880;6.016;2022-10-13T00:11:00;33.63;;;14.65;;
54883;SDS011;40776;52.880;6.016;2022-10-13T00:13:26;25.15;;;13.45;;
54883;SDS011;40776;52.880;6.016;2022-10-13T00:15:52;25.85;;;15.23;;
54883;SDS011;40776;52.880;6.016;2022-10-13T00:18:18;31.25;;;14.02;;
54883;SDS011;40776;52.880;6.016;2022-10-13T00:20:45;25.85;;;13.82;;
54883;SDS011;40776;52.880;6.016;2022-10-13T00:23:11;29.98;;;14.38;;
54883;SDS011;40776;52.880;6.016;2022-10-13T00:25:45;27.88;;;13.85;;
54883;SDS011;40776;52.880;6.016;2022-10-13T00:28:12;23.45;;;13.52;;
54883;SDS011;40776;52.880;6.016;2022-10-13T00:30:38;31.77;;;14.38;;
54883;SDS011;40776;52.880;6.016;2022-10-13T00:33:05;28.25;;;13.43;;
54883;SDS011;40776;52.880;6.016;2022-10-13T00:35:31;25.85;;;14.85;;
54883;SDS011;40776;52.880;6.016;2022-10-13T00:37:57;29.17;;;13.55;;
54883;SDS011;40776;52.880;6.016;2022-10-13T00:40:23;29.98;;;13.15;;
54883;SDS011;40776;52.880;6.016;2022-10-13T00:42:49;30.95;;;14.00;;
54883;SDS011;40776;52.880;6.016;2022-10-13T00:45:25;24.95;;;13.70;;
54883;SDS011;40776;52.880;6.016;2022-10-13T00:47:56;27.08;;;14.60;;
54883;SDS011;40776;52.880;6.016;2022-10-13T00:50:27;28.65;;;13.68;;
54883;SDS011;40776;52.880;6.016;2022-10-13T00:52:55;26.73;;;12.18;;
54883;SDS011;40776;52.880;6.016;2022-10-13T00:55:22;23.10;;;13.00;;
54883;SDS011;40776;52.880;6.016;2022-10-13T00:57:50;28.33;;;13.90;;
54883;SDS011;40776;52.880;6.016;2022-10-13T01:00:23;26.67;;;14.40;;
54883;SDS011;40776;52.880;6.016;2022-10-13T01:02:50;28.93;;;13.77;;
54883;SDS011;40776;52.880;6.016;2022-10-13T01:05:16;22.27;;;12.88;;
54883;SDS011;40776;52.880;6.016;2022-10-13T01:07:43;30.25;;;14.48;;
54883;SDS011;40776;52.880;6.016;2022-10-13T01:10:12;21.80;;;13.15;;
54883;SDS011;40776;52.880;6.016;2022-10-13T01:23:05;28.13;;;14.85;;
54883;SDS011;40776;52.880;6.016;2022-10-13T01:25:51;25.02;;;12.45;;
54883;SDS011;40776;52.880;6.016;2022-10-13T01:30:49;26.08;;;12.50;;
54883;SDS011;40776;52.880;6.016;2022-10-13T01:36:25;22.90;;;11.50;;
54883;SDS011;40776;52.880;6.016;2022-10-13T01:38:59;24.45;;;12.63;;
54883;SDS011;40776;52.880;6.016;2022-10-13T01:41:28;22.55;;;11.98;;
54883;SDS011;40776;52.880;6.016;2022-10-13T01:46:27;29.90;;;14.23;;
54883;SDS011;40776;52.880;6.016;2022-10-13T01:48:55;25.38;;;13.10;;
54883;SDS011;40776;52.880;6.016;2022-10-13T01:51:23;21.50;;;12.63;;
54883;SDS011;40776;52.880;6.016;2022-10-13T01:53:50;30.80;;;13.75;;
54883;SDS011;40776;52.880;6.016;2022-10-13T01:56:16;30.70;;;13.93;;
54883;SDS011;40776;52.880;6.016;2022-10-13T01:58:43;25.35;;;13.38;;
54883;SDS011;40776;52.880;6.016;2022-10-13T02:06:21;24.00;;;12.13;;
54883;SDS011;40776;52.880;6.016;2022-10-13T02:08:52;30.63;;;13.43;;
54883;SDS011;40776;52.880;6.016;2022-10-13T02:11:21;25.90;;;13.88;;
54883;SDS011;40776;52.880;6.016;2022-10-13T02:14:10;23.65;;;12.45;;
54883;SDS011;40776;52.880;6.016;2022-10-13T02:16:34;26.50;;;13.60;;
54883;SDS011;40776;52.880;6.016;2022-10-13T02:19:02;26.25;;;13.30;;
54883;SDS011;40776;52.880;6.016;2022-10-13T02:21:29;27.10;;;13.23;;
54883;SDS011;40776;52.880;6.016;2022-10-13T02:23:55;27.15;;;13.80;;
54883;SDS011;40776;52.880;6.016;2022-10-13T02:26:22;28.40;;;13.18;;
54883;SDS011;40776;52.880;6.016;2022-10-13T02:28:48;26.70;;;14.15;;
54883;SDS011;40776;52.880;6.016;2022-10-13T02:31:14;26.17;;;14.65;;
54883;SDS011;40776;52.880;6.016;2022-10-13T02:33:40;30.88;;;14.23;;
54883;SDS011;40776;52.880;6.016;2022-10-13T02:36:06;31.25;;;15.23;;
54883;SDS011;40776;52.880;6.016;2022-10-13T02:38:32;29.63;;;13.73;;
54883;SDS011;40776;52.880;6.016;2022-10-13T02:40:59;29.52;;;14.57;;
54883;SDS011;40776;52.880;6.016;2022-10-13T02:43:26;23.55;;;14.20;;
54883;SDS011;40776;52.880;6.016;2022-10-13T02:45:52;31.25;;;15.30;;
54883;SDS011;40776;52.880;6.016;2022-10-13T02:48:18;30.52;;;14.95;;
54883;SDS011;40776;52.880;6.016;2022-10-13T02:50:45;30.52;;;15.38;;
54883;SDS011;40776;52.880;6.016;2022-10-13T02:53:11;33.40;;;16.38;;
54883;SDS011;40776;52.880;6.016;2022-10-13T02:55:37;30.88;;;16.67;;
54883;SDS011;40776;52.880;6.016;2022-10-13T02:58:03;28.95;;;15.05;;
54883;SDS011;40776;52.880;6.016;2022-10-13T03:00:29;32.08;;;16.63;;
54883;SDS011;40776;52.880;6.016;2022-10-13T03:02:55;31.45;;;16.95;;
54883;SDS011;40776;52.880;6.016;2022-10-13T03:05:21;32.40;;;15.70;;
54883;SDS011;40776;52.880;6.016;2022-10-13T03:07:47;30.60;;;15.18;;
54883;SDS011;40776;52.880;6.016;2022-10-13T03:10:14;30.70;;;16.27;;
54883;SDS011;40776;52.880;6.016;2022-10-13T03:12:40;31.05;;;16.48;;
54883;SDS011;40776;52.880;6.016;2022-10-13T03:15:06;29.35;;;15.98;;
54883;SDS011;40776;52.880;6.016;2022-10-13T03:17:32;31.52;;;19.23;;
54883;SDS011;40776;52.880;6.016;2022-10-13T03:19:58;35.72;;;17.77;;
54883;SDS011;40776;52.880;6.016;2022-10-13T03:22:24;31.13;;;17.52;;
54883;SDS011;40776;52.880;6.016;2022-10-13T03:24:50;29.13;;;16.92;;
54883;SDS011;40776;52.880;6.016;2022-10-13T03:27:16;32.85;;;18.48;;
54883;SDS011;40776;52.880;6.016;2022-10-13T03:29:42;29.50;;;15.90;;
54883;SDS011;40776;52.880;6.016;2022-10-13T03:32:08;33.53;;;16.88;;
54883;SDS011;40776;52.880;6.016;2022-10-13T03:34:34;27.95;;;16.85;;
54883;SDS011;40776;52.880;6.016;2022-10-13T03:37:00;38.95;;;17.85;;
54883;SDS011;40776;52.880;6.016;2022-10-13T03:39:27;35.00;;;18.15;;
54883;SDS011;40776;52.880;6.016;2022-10-13T03:41:53;34.55;;;18.17;;
54883;SDS011;40776;52.880;6.016;2022-10-13T03:44:19;31.17;;;18.05;;
54883;SDS011;40776;52.880;6.016;2022-10-13T03:46:45;34.95;;;19.20;;
54883;SDS011;40776;52.880;6.016;2022-10-13T03:49:11;36.75;;;18.90;;
54883;SDS011;40776;52.880;6.016;2022-10-13T03:51:37;40.47;;;18.77;;
54883;SDS011;40776;52.880;6.016;2022-10-13T03:54:04;33.80;;;19.30;;
54883;SDS011;40776;52.880;6.016;2022-10-13T03:56:30;42.42;;;19.45;;
54883;SDS011;40776;52.880;6.016;2022-10-13T03:58:57;31.25;;;18.40;;
54883;SDS011;40776;52.880;6.016;2022-10-13T04:01:25;38.90;;;18.00;;
54883;SDS011;40776;52.880;6.016;2022-10-13T04:03:52;36.30;;;19.55;;
54883;SDS011;40776;52.880;6.016;2022-10-13T04:06:19;34.95;;;19.92;;
54883;SDS011;40776;52.880;6.016;2022-10-13T04:08:46;39.95;;;19.88;;
54883;SDS011;40776;52.880;6.016;2022-10-13T04:11:13;35.88;;;20.05;;
54883;SDS011;40776;52.880;6.016;2022-10-13T04:13:41;39.28;;;20.08;;
54883;SDS011;40776;52.880;6.016;2022-10-13T04:16:20;37.83;;;20.08;;
54883;SDS011;40776;52.880;6.016;2022-10-13T04:18:58;35.97;;;19.73;;
54883;SDS011;40776;52.880;6.016;2022-10-13T04:21:24;42.28;;;21.85;;
54883;SDS011;40776;52.880;6.016;2022-10-13T04:23:53;36.22;;;20.45;;
54883;SDS011;40776;52.880;6.016;2022-10-13T04:26:21;42.42;;;22.73;;
54883;SDS011;40776;52.880;6.016;2022-10-13T04:28:47;39.40;;;20.85;;
54883;SDS011;40776;52.880;6.016;2022-10-13T04:31:14;44.08;;;21.48;;
54883;SDS011;40776;52.880;6.016;2022-10-13T04:33:40;42.88;;;22.40;;
54883;SDS011;40776;52.880;6.016;2022-10-13T04:36:10;44.22;;;21.35;;
54883;SDS011;40776;52.880;6.016;2022-10-13T04:38:37;45.20;;;24.00;;
54883;SDS011;40776;52.880;6.016;2022-10-13T04:41:03;38.38;;;22.27;;
54883;SDS011;40776;52.880;6.016;2022-10-13T04:43:30;47.40;;;24.48;;
54883;SDS011;40776;52.880;6.016;2022-10-13T04:46:01;45.22;;;24.85;;
54883;SDS011;40776;52.880;6.016;2022-10-13T04:48:27;43.80;;;24.75;;
54883;SDS011;40776;52.880;6.016;2022-10-13T04:51:00;44.55;;;24.98;;
54883;SDS011;40776;52.880;6.016;2022-10-13T04:53:26;53.08;;;26.10;;
54883;SDS011;40776;52.880;6.016;2022-10-13T04:55:53;43.85;;;25.55;;
54883;SDS011;40776;52.880;6.016;2022-10-13T04:58:20;47.15;;;25.67;;
54883;SDS011;40776;52.880;6.016;2022-10-13T05:00:46;47.97;;;26.48;;
54883;SDS011;40776;52.880;6.016;2022-10-13T05:03:16;49.58;;;27.55;;
54883;SDS011;40776;52.880;6.016;2022-10-13T05:05:42;48.58;;;25.90;;
54883;SDS011;40776;52.880;6.016;2022-10-13T05:08:11;51.85;;;27.23;;
54883;SDS011;40776;52.880;6.016;2022-10-13T05:10:37;51.22;;;27.05;;
54883;SDS011;40776;52.880;6.016;2022-10-13T05:13:03;55.95;;;30.02;;
54883;SDS011;40776;52.880;6.016;2022-10-13T05:15:29;51.70;;;28.05;;
54883;SDS011;40776;52.880;6.016;2022-10-13T05:17:56;53.78;;;28.45;;
54883;SDS011;40776;52.880;6.016;2022-10-13T05:20:23;59.67;;;28.77;;
54883;SDS011;40776;52.880;6.016;2022-10-13T05:22:49;51.45;;;27.85;;
54883;SDS011;40776;52.880;6.016;2022-10-13T05:25:15;49.50;;;27.52;;
54883;SDS011;40776;52.880;6.016;2022-10-13T05:27:41;56.47;;;28.60;;
54883;SDS011;40776;52.880;6.016;2022-10-13T05:30:09;51.17;;;27.08;;
54883;SDS011;40776;52.880;6.016;2022-10-13T05:32:35;55.17;;;29.77;;
54883;SDS011;40776;52.880;6.016;2022-10-13T05:35:01;49.95;;;26.60;;
54883;SDS011;40776;52.880;6.016;2022-10-13T05:37:28;50.38;;;27.98;;
54883;SDS011;40776;52.880;6.016;2022-10-13T05:39:56;52.35;;;27.25;;
54883;SDS011;40776;52.880;6.016;2022-10-13T05:42:22;51.45;;;28.35;;
54883;SDS011;40776;52.880;6.016;2022-10-13T05:44:48;50.25;;;28.25;;
54883;SDS011;40776;52.880;6.016;2022-10-13T05:47:14;48.92;;;25.92;;
54883;SDS011;40776;52.880;6.016;2022-10-13T05:49:40;47.45;;;26.58;;
54883;SDS011;40776;52.880;6.016;2022-10-13T05:52:07;52.45;;;27.27;;
54883;SDS011;40776;52.880;6.016;2022-10-13T05:54:35;44.17;;;26.05;;
54883;SDS011;40776;52.880;6.016;2022-10-13T05:57:05;54.80;;;26.63;;
54883;SDS011;40776;52.880;6.016;2022-10-13T05:59:32;50.25;;;27.60;;
54883;SDS011;40776;52.880;6.016;2022-10-13T06:02:01;53.88;;;28.27;;
54883;SDS011;40776;52.880;6.016;2022-10-13T06:04:33;49.35;;;26.83;;
54883;SDS011;40776;52.880;6.016;2022-10-13T06:07:00;48.10;;;26.77;;
54883;SDS011;40776;52.880;6.016;2022-10-13T06:09:27;45.03;;;26.25;;
54883;SDS011;40776;52.880;6.016;2022-10-13T06:11:58;44.50;;;24.80;;
54883;SDS011;40776;52.880;6.016;2022-10-13T06:14:24;52.38;;;26.10;;
54883;SDS011;40776;52.880;6.016;2022-10-13T06:16:50;47.28;;;27.55;;
54883;SDS011;40776;52.880;6.016;2022-10-13T06:19:16;52.13;;;26.92;;
54883;SDS011;40776;52.880;6.016;2022-10-13T06:21:42;52.65;;;26.90;;
54883;SDS011;40776;52.880;6.016;2022-10-13T06:24:08;48.67;;;24.63;;
54883;SDS011;40776;52.880;6.016;2022-10-13T06:26:38;53.35;;;25.70;;
54883;SDS011;40776;52.880;6.016;2022-10-13T06:29:04;46.63;;;25.58;;
54883;SDS011;40776;52.880;6.016;2022-10-13T06:31:30;47.75;;;24.13;;
54883;SDS011;40776;52.880;6.016;2022-10-13T06:33:57;45.28;;;24.63;;
54883;SDS011;40776;52.880;6.016;2022-10-13T06:36:23;45.85;;;25.40;;
54883;SDS011;40776;52.880;6.016;2022-10-13T06:38:49;49.50;;;26.83;;
54883;SDS011;40776;52.880;6.016;2022-10-13T06:41:15;50.92;;;27.15;;
54883;SDS011;40776;52.880;6.016;2022-10-13T06:43:41;41.70;;;24.67;;
54883;SDS011;40776;52.880;6.016;2022-10-13T06:46:07;47.15;;;26.58;;
54883;SDS011;40776;52.880;6.016;2022-10-13T06:48:33;46.35;;;25.67;;
54883;SDS011;40776;52.880;6.016;2022-10-13T06:51:04;46.75;;;25.00;;
54883;SDS011;40776;52.880;6.016;2022-10-13T06:56:00;48.15;;;26.88;;
54883;SDS011;40776;52.880;6.016;2022-10-13T06:58:26;50.80;;;27.33;;
54883;SDS011;40776;52.880;6.016;2022-10-13T07:00:53;47.45;;;25.58;;
54883;SDS011;40776;52.880;6.016;2022-10-13T07:03:19;42.63;;;25.15;;
54883;SDS011;40776;52.880;6.016;2022-10-13T07:05:45;45.15;;;24.90;;
54883;SDS011;40776;52.880;6.016;2022-10-13T07:08:12;45.00;;;25.17;;
54883;SDS011;40776;52.880;6.016;2022-10-13T07:10:38;44.22;;;26.05;;
54883;SDS011;40776;52.880;6.016;2022-10-13T07:13:05;46.17;;;25.48;;
54883;SDS011;40776;52.880;6.016;2022-10-13T07:15:31;43.25;;;24.08;;
54883;SDS011;40776;52.880;6.016;2022-10-13T07:17:57;44.50;;;26.75;;
54883;SDS011;40776;52.880;6.016;2022-10-13T07:20:24;46.40;;;25.35;;
54883;SDS011;40776;52.880;6.016;2022-10-13T07:22:53;42.53;;;25.48;;
54883;SDS011;40776;52.880;6.016;2022-10-13T07:25:19;45.40;;;25.92;;
54883;SDS011;40776;52.880;6.016;2022-10-13T07:27:45;46.38;;;26.63;;
54883;SDS011;40776;52.880;6.016;2022-10-13T07:30:11;48.55;;;25.95;;
54883;SDS011;40776;52.880;6.016;2022-10-13T07:32:38;42.05;;;24.30;;
54883;SDS011;40776;52.880;6.016;2022-10-13T07:35:06;45.88;;;25.92;;
54883;SDS011;40776;52.880;6.016;2022-10-13T07:37:32;45.40;;;24.52;;
54883;SDS011;40776;52.880;6.016;2022-10-13T07:39:58;45.88;;;25.67;;
54883;SDS011;40776;52.880;6.016;2022-10-13T07:42:24;51.05;;;25.38;;
54883;SDS011;40776;52.880;6.016;2022-10-13T07:44:50;42.15;;;22.70;;
54883;SDS011;40776;52.880;6.016;2022-10-13T07:47:16;47.70;;;25.65;;
54883;SDS011;40776;52.880;6.016;2022-10-13T07:49:42;42.28;;;23.55;;
54883;SDS011;40776;52.880;6.016;2022-10-13T07:52:08;39.58;;;24.13;;
54883;SDS011;40776;52.880;6.016;2022-10-13T07:54:34;51.22;;;25.27;;
54883;SDS011;40776;52.880;6.016;2022-10-13T07:57:03;45.22;;;24.05;;
54883;SDS011;40776;52.880;6.016;2022-10-13T07:59:30;40.67;;;24.30;;
54883;SDS011;40776;52.880;6.016;2022-10-13T08:01:57;42.17;;;25.00;;
54883;SDS011;40776;52.880;6.016;2022-10-13T08:04:27;50.60;;;26.23;;
54883;SDS011;40776;52.880;6.016;2022-10-13T08:06:53;47.08;;;26.25;;
54883;SDS011;40776;52.880;6.016;2022-10-13T08:09:22;45.20;;;25.77;;
54883;SDS011;40776;52.880;6.016;2022-10-13T08:11:51;52.88;;;26.35;;
54883;SDS011;40776;52.880;6.016;2022-10-13T08:14:18;46.97;;;25.58;;
54883;SDS011;40776;52.880;6.016;2022-10-13T08:16:44;42.95;;;26.10;;
54883;SDS011;40776;52.880;6.016;2022-10-13T08:19:16;49.50;;;25.40;;
54883;SDS011;40776;52.880;6.016;2022-10-13T08:21:42;52.33;;;27.33;;
54883;SDS011;40776;52.880;6.016;2022-10-13T08:24:13;49.28;;;26.85;;
54883;SDS011;40776;52.880;6.016;2022-10-13T08:26:40;46.55;;;26.92;;
54883;SDS011;40776;52.880;6.016;2022-10-13T08:29:06;45.65;;;27.83;;
54883;SDS011;40776;52.880;6.016;2022-10-13T08:31:32;46.17;;;26.90;;
54883;SDS011;40776;52.880;6.016;2022-10-13T08:33:58;49.55;;;28.60;;
54883;SDS011;40776;52.880;6.016;2022-10-13T08:36:24;41.88;;;25.10;;
54883;SDS011;40776;52.880;6.016;2022-10-13T08:38:51;48.97;;;26.58;;
54883;SDS011;40776;52.880;6.016;2022-10-13T08:46:46;42.88;;;25.92;;
54883;SDS011;40776;52.880;6.016;2022-10-13T08:49:17;48.03;;;26.58;;
54883;SDS011;40776;52.880;6.016;2022-10-13T08:51:43;50.28;;;26.67;;
54883;SDS011;40776;52.880;6.016;2022-10-13T08:54:10;45.75;;;27.50;;
54883;SDS011;40776;52.880;6.016;2022-10-13T08:56:38;48.47;;;24.95;;
54883;SDS011;40776;52.880;6.016;2022-10-13T08:59:04;42.97;;;25.00;;
54883;SDS011;40776;52.880;6.016;2022-10-13T09:01:32;49.70;;;27.73;;
54883;SDS011;40776;52.880;6.016;2022-10-13T09:06:35;41.83;;;25.70;;
54883;SDS011;40776;52.880;6.016;2022-10-13T09:09:07;45.75;;;25.80;;
54883;SDS011;40776;52.880;6.016;2022-10-13T09:11:35;40.45;;;25.48;;
54883;SDS011;40776;52.880;6.016;2022-10-13T09:14:03;38.17;;;25.70;;
54883;SDS011;40776;52.880;6.016;2022-10-13T09:16:32;38.53;;;25.33;;
54883;SDS011;40776;52.880;6.016;2022-10-13T09:19:12;40.40;;;24.92;;
54883;SDS011;40776;52.880;6.016;2022-10-13T09:21:39;40.47;;;25.92;;
54883;SDS011;40776;52.880;6.016;2022-10-13T09:24:06;41.25;;;23.92;;
54883;SDS011;40776;52.880;6.016;2022-10-13T09:26:35;42.58;;;25.50;;
54883;SDS011;40776;52.880;6.016;2022-10-13T09:29:35;34.58;;;23.30;;
54883;SDS011;40776;52.880;6.016;2022-10-13T09:34:39;35.78;;;22.95;;
54883;SDS011;40776;52.880;6.016;2022-10-13T09:37:20;34.70;;;21.45;;
54883;SDS011;40776;52.880;6.016;2022-10-13T09:39:48;38.22;;;24.45;;
54883;SDS011;40776;52.880;6.016;2022-10-13T09:42:28;39.78;;;24.35;;
54883;SDS011;40776;52.880;6.016;2022-10-13T09:44:59;44.10;;;25.58;;
54883;SDS011;40776;52.880;6.016;2022-10-13T09:47:27;40.85;;;25.42;;
54883;SDS011;40776;52.880;6.016;2022-10-13T09:50:02;45.65;;;27.23;;
54883;SDS011;40776;52.880;6.016;2022-10-13T09:52:29;44.97;;;27.52;;
54883;SDS011;40776;52.880;6.016;2022-10-13T09:54:56;46.92;;;28.70;;
54883;SDS011;40776;52.880;6.016;2022-10-13T10:10:51;48.92;;;31.67;;
54883;SDS011;40776;52.880;6.016;2022-10-13T10:13:17;46.15;;;28.85;;
54883;SDS011;40776;52.880;6.016;2022-10-13T10:15:46;49.88;;;28.45;;
54883;SDS011;40776;52.880;6.016;2022-10-13T10:18:20;51.13;;;27.80;;
54883;SDS011;40776;52.880;6.016;2022-10-13T10:23:32;49.22;;;26.67;;
54883;SDS011;40776;52.880;6.016;2022-10-13T10:26:07;50.88;;;29.30;;
54883;SDS011;40776;52.880;6.016;2022-10-13T10:36:56;47.63;;;28.33;;
54883;SDS011;40776;52.880;6.016;2022-10-13T10:44:41;52.35;;;28.75;;
54883;SDS011;40776;52.880;6.016;2022-10-13T10:47:15;51.97;;;28.73;;
54883;SDS011;40776;52.880;6.016;2022-10-13T10:49:46;46.33;;;28.42;;
54883;SDS011;40776;52.880;6.016;2022-10-13T10:52:17;50.60;;;27.23;;
54883;SDS011;40776;52.880;6.016;2022-10-13T10:55:00;41.55;;;25.10;;
54883;SDS011;40776;52.880;6.016;2022-10-13T10:57:33;46.63;;;27.92;;
54883;SDS011;40776;52.880;6.016;2022-10-13T11:05:13;45.35;;;26.60;;
54883;SDS011;40776;52.880;6.016;2022-10-13T11:12:48;44.65;;;26.15;;
54883;SDS011;40776;52.880;6.016;2022-10-13T11:15:39;39.20;;;23.70;;
54883;SDS011;40776;52.880;6.016;2022-10-13T11:20:56;38.13;;;25.35;;
54883;SDS011;40776;52.880;6.016;2022-10-13T11:25:49;41.53;;;24.27;;
54883;SDS011;40776;52.880;6.016;2022-10-13T11:30:51;42.92;;;25.95;;
54883;SDS011;40776;52.880;6.016;2022-10-13T11:33:48;40.05;;;25.80;;
54883;SDS011;40776;52.880;6.016;2022-10-13T11:41:54;36.05;;;23.17;;
54883;SDS011;40776;52.880;6.016;2022-10-13T11:44:38;41.28;;;24.98;;
54883;SDS011;40776;52.880;6.016;2022-10-13T11:47:27;39.20;;;25.00;;
54883;SDS011;40776;52.880;6.016;2022-10-13T11:56:16;41.75;;;25.30;;
54883;SDS011;40776;52.880;6.016;2022-10-13T12:00:49;39.67;;;24.45;;
54883;SDS011;40776;52.880;6.016;2022-10-13T12:03:19;40.65;;;25.42;;
54883;SDS011;40776;52.880;6.016;2022-10-13T12:08:14;38.03;;;24.00;;
54883;SDS011;40776;52.880;6.016;2022-10-13T12:10:41;38.28;;;23.27;;
54883;SDS011;40776;52.880;6.016;2022-10-13T12:13:17;36.75;;;22.27;;
54883;SDS011;40776;52.880;6.016;2022-10-13T12:15:44;34.42;;;23.17;;
54883;SDS011;40776;52.880;6.016;2022-10-13T12:18:24;33.13;;;23.15;;
54883;SDS011;40776;52.880;6.016;2022-10-13T12:20:55;39.85;;;24.20;;
54883;SDS011;40776;52.880;6.016;2022-10-13T12:23:23;33.78;;;23.17;;
54883;SDS011;40776;52.880;6.016;2022-10-13T12:25:51;34.55;;;21.88;;
54883;SDS011;40776;52.880;6.016;2022-10-13T12:28:22;32.17;;;21.85;;
54883;SDS011;40776;52.880;6.016;2022-10-13T12:30:50;33.10;;;21.20;;
54883;SDS011;40776;52.880;6.016;2022-10-13T12:33:27;39.03;;;22.05;;
54883;SDS011;40776;52.880;6.016;2022-10-13T12:35:54;28.75;;;19.48;;
54883;SDS011;40776;52.880;6.016;2022-10-13T12:38:21;30.40;;;20.80;;
54883;SDS011;40776;52.880;6.016;2022-10-13T12:40:48;35.30;;;22.70;;
54883;SDS011;40776;52.880;6.016;2022-10-13T12:43:15;34.70;;;21.77;;
54883;SDS011;40776;52.880;6.016;2022-10-13T12:45:43;36.20;;;20.95;;
54883;SDS011;40776;52.880;6.016;2022-10-13T12:48:28;30.27;;;20.42;;
54883;SDS011;40776;52.880;6.016;2022-10-13T12:50:54;34.13;;;20.98;;
54883;SDS011;40776;52.880;6.016;2022-10-13T12:53:22;29.45;;;20.38;;
54883;SDS011;40776;52.880;6.016;2022-10-13T12:55:54;32.08;;;21.52;;
54883;SDS011;40776;52.880;6.016;2022-10-13T13:03:35;34.13;;;21.25;;
54883;SDS011;40776;52.880;6.016;2022-10-13T13:06:06;30.35;;;21.23;;
54883;SDS011;40776;52.880;6.016;2022-10-13T13:08:32;30.20;;;20.65;;
54883;SDS011;40776;52.880;6.016;2022-10-13T13:11:05;35.20;;;22.45;;
54883;SDS011;40776;52.880;6.016;2022-10-13T13:13:32;35.00;;;22.05;;
54883;SDS011;40776;52.880;6.016;2022-10-13T13:16:17;28.40;;;18.67;;
54883;SDS011;40776;52.880;6.016;2022-10-13T13:18:47;31.67;;;20.55;;
54883;SDS011;40776;52.880;6.016;2022-10-13T13:21:17;31.30;;;20.52;;
54883;SDS011;40776;52.880;6.016;2022-10-13T13:23:49;30.83;;;20.90;;
54883;SDS011;40776;52.880;6.016;2022-10-13T13:26:19;30.63;;;20.52;;
54883;SDS011;40776;52.880;6.016;2022-10-13T13:28:49;31.15;;;19.90;;
54883;SDS011;40776;52.880;6.016;2022-10-13T13:31:16;32.13;;;20.95;;
54883;SDS011;40776;52.880;6.016;2022-10-13T13:33:43;31.83;;;18.58;;
54883;SDS011;40776;52.880;6.016;2022-10-13T13:36:19;29.08;;;20.27;;
54883;SDS011;40776;52.880;6.016;2022-10-13T13:38:46;33.85;;;19.73;;
54883;SDS011;40776;52.880;6.016;2022-10-13T13:41:15;30.17;;;20.20;;
54883;SDS011;40776;52.880;6.016;2022-10-13T13:43:42;29.60;;;19.83;;
54883;SDS011;40776;52.880;6.016;2022-10-13T13:46:19;30.55;;;19.90;;
54883;SDS011;40776;52.880;6.016;2022-10-13T13:48:46;29.40;;;19.65;;
54883;SDS011;40776;52.880;6.016;2022-10-13T13:51:14;32.28;;;19.27;;
54883;SDS011;40776;52.880;6.016;2022-10-13T13:53:41;26.58;;;18.20;;
54883;SDS011;40776;52.880;6.016;2022-10-13T13:56:10;30.13;;;20.23;;
54883;SDS011;40776;52.880;6.016;2022-10-13T13:58:43;28.08;;;18.58;;
54883;SDS011;40776;52.880;6.016;2022-10-13T14:01:09;33.28;;;19.48;;
54883;SDS011;40776;52.880;6.016;2022-10-13T14:03:38;34.10;;;19.20;;
54883;SDS011;40776;52.880;6.016;2022-10-13T14:06:04;24.25;;;17.27;;
54883;SDS011;40776;52.880;6.016;2022-10-13T14:08:31;29.20;;;18.88;;
54883;SDS011;40776;52.880;6.016;2022-10-13T14:11:00;24.88;;;18.35;;
54883;SDS011;40776;52.880;6.016;2022-10-13T14:13:30;26.92;;;17.75;;
54883;SDS011;40776;52.880;6.016;2022-10-13T14:15:56;23.05;;;16.83;;
54883;SDS011;40776;52.880;6.016;2022-10-13T14:18:23;25.10;;;17.48;;
54883;SDS011;40776;52.880;6.016;2022-10-13T14:20:52;25.05;;;16.48;;
54883;SDS011;40776;52.880;6.016;2022-10-13T14:23:20;31.17;;;15.65;;
54883;SDS011;40776;52.880;6.016;2022-10-13T14:25:46;22.58;;;16.08;;
54883;SDS011;40776;52.880;6.016;2022-10-13T14:28:12;19.80;;;12.45;;
54883;SDS011;40776;52.880;6.016;2022-10-13T14:30:39;16.80;;;11.27;;
54883;SDS011;40776;52.880;6.016;2022-10-13T14:33:05;20.38;;;13.65;;
54883;SDS011;40776;52.880;6.016;2022-10-13T14:35:31;20.02;;;13.30;;
54883;SDS011;40776;52.880;6.016;2022-10-13T14:37:57;18.50;;;11.60;;
54883;SDS011;40776;52.880;6.016;2022-10-13T14:40:23;14.75;;;10.00;;
54883;SDS011;40776;52.880;6.016;2022-10-13T14:42:49;16.15;;;9.77;;
54883;SDS011;40776;52.880;6.016;2022-10-13T14:45:15;12.25;;;7.90;;
54883;SDS011;40776;52.880;6.016;2022-10-13T14:47:44;11.82;;;7.80;;
54883;SDS011;40776;52.880;6.016;2022-10-13T14:50:10;14.20;;;8.18;;
54883;SDS011;40776;52.880;6.016;2022-10-13T14:52:38;11.52;;;6.65;;
54883;SDS011;40776;52.880;6.016;2022-10-13T14:55:05;9.23;;;5.28;;
54883;SDS011;40776;52.880;6.016;2022-10-13T14:57:34;9.98;;;5.15;;
54883;SDS011;40776;52.880;6.016;2022-10-13T15:00:00;10.48;;;5.30;;
54883;SDS011;40776;52.880;6.016;2022-10-13T15:02:26;11.50;;;5.65;;
54883;SDS011;40776;52.880;6.016;2022-10-13T15:04:52;8.30;;;4.95;;
54883;SDS011;40776;52.880;6.016;2022-10-13T15:07:18;7.88;;;5.70;;
54883;SDS011;40776;52.880;6.016;2022-10-13T15:09:44;7.60;;;4.50;;
54883;SDS011;40776;52.880;6.016;2022-10-13T15:12:10;5.45;;;3.72;;
54883;SDS011;40776;52.880;6.016;2022-10-13T15:14:36;6.65;;;3.70;;
54883;SDS011;40776;52.880;6.016;2022-10-13T15:17:02;6.32;;;3.97;;
54883;SDS011;40776;52.880;6.016;2022-10-13T15:19:28;7.05;;;3.70;;
54883;SDS011;40776;52.880;6.016;2022-10-13T15:21:55;5.45;;;3.75;;
54883;SDS011;40776;52.880;6.016;2022-10-13T15:24:21;7.57;;;4.15;;
54883;SDS011;40776;52.880;6.016;2022-10-13T15:26:47;10.02;;;4.95;;
54883;SDS011;40776;52.880;6.016;2022-10-13T15:29:13;6.57;;;3.30;;
54883;SDS011;40776;52.880;6.016;2022-10-13T15:31:39;5.85;;;2.92;;
54883;SDS011;40776;52.880;6.016;2022-10-13T15:34:05;8.30;;;2.88;;
54883;SDS011;40776;52.880;6.016;2022-10-13T15:36:31;7.75;;;3.40;;
54883;SDS011;40776;52.880;6.016;2022-10-13T15:38:57;6.32;;;4.00;;
54883;SDS011;40776;52.880;6.016;2022-10-13T15:41:23;6.65;;;3.20;;
54883;SDS011;40776;52.880;6.016;2022-10-13T15:43:49;6.20;;;3.20;;
54883;SDS011;40776;52.880;6.016;2022-10-13T15:46:15;5.65;;;2.85;;
54883;SDS011;40776;52.880;6.016;2022-10-13T15:48:51;7.78;;;3.30;;
54883;SDS011;40776;52.880;6.016;2022-10-13T15:51:20;5.22;;;3.53;;
54883;SDS011;40776;52.880;6.016;2022-10-13T15:53:46;7.50;;;4.25;;
54883;SDS011;40776;52.880;6.016;2022-10-13T15:56:13;7.20;;;3.58;;
54883;SDS011;40776;52.880;6.016;2022-10-13T15:58:41;5.03;;;3.10;;
54883;SDS011;40776;52.880;6.016;2022-10-13T16:01:08;6.25;;;3.33;;
54883;SDS011;40776;52.880;6.016;2022-10-13T16:03:34;6.63;;;3.30;;
54883;SDS011;40776;52.880;6.016;2022-10-13T16:06:04;7.63;;;2.90;;
54883;SDS011;40776;52.880;6.016;2022-10-13T16:08:31;5.53;;;3.70;;
54883;SDS011;40776;52.880;6.016;2022-10-13T16:10:57;7.00;;;3.53;;
54883;SDS011;40776;52.880;6.016;2022-10-13T16:13:23;5.75;;;3.40;;
54883;SDS011;40776;52.880;6.016;2022-10-13T16:15:56;7.70;;;3.75;;